Time;durP1;ratioP1;P1;durP2;ratioP2;P2;SDS_P1;SDS_P2;PMS_P1;PMS_P2;Temp;Humidity;BMP_temperature;BMP_pressure;BME280_temperature;BME280_humidity;BME280_pressure;Samples;Min_cycle;Max_cycle;Signal;HPM_P1;HPM_P2
2022/08/13 00:01:42;;;;;;;3.03;1.75;;;;;;;17.33;53.32;95888.41;5041698;28;24456;-73
2022/08/13 00:04:12;;;;;;;2.58;1.35;;;;;;;17.30;53.05;95884.25;5039165;28;24435;-72
2022/08/13 00:09:23;;;;;;;2.50;1.30;;;;;;;17.24;53.54;95881.34;5038066;28;24431;-74
2022/08/13 00:14:37;;;;;;;2.30;1.40;;;;;;;17.14;54.05;95871.69;5036180;28;24442;-72
2022/08/13 00:17:06;;;;;;;1.50;1.30;;;;;;;16.90;54.40;95873.81;5033347;28;24435;-72
2022/08/13 00:19:33;;;;;;;2.75;1.08;;;;;;;17.00;54.09;95879.09;5037850;28;24444;-73
2022/08/13 00:22:00;;;;;;;3.40;1.33;;;;;;;17.09;54.07;95881.75;5040379;28;24454;-74
2022/08/13 00:24:29;;;;;;;2.75;1.30;;;;;;;17.09;53.77;95878.28;5042142;28;24809;-72
2022/08/13 00:26:56;;;;;;;1.90;1.52;;;;;;;17.14;53.56;95873.47;5038536;28;24450;-74
2022/08/13 00:29:25;;;;;;;2.50;1.42;;;;;;;17.18;53.35;95867.00;5034743;28;24442;-73
2022/08/13 00:31:51;;;;;;;4.27;1.27;;;;;;;17.07;54.29;95867.13;5045977;28;24542;-73
2022/08/13 00:34:18;;;;;;;2.47;1.40;;;;;;;17.05;54.16;95861.19;5032007;28;24432;-72
2022/08/13 00:36:47;;;;;;;2.17;1.48;;;;;;;17.11;54.53;95851.00;5037291;28;24520;-72
2022/08/13 00:39:14;;;;;;;2.33;1.42;;;;;;;16.87;55.24;95851.38;5038680;28;24533;-72
2022/08/13 00:41:43;;;;;;;2.47;1.48;;;;;;;16.73;55.61;95846.47;5043517;28;24455;-72
2022/08/13 00:44:13;;;;;;;1.85;1.38;;;;;;;16.62;55.92;95842.16;5036561;28;24435;-74
2022/08/13 00:46:40;;;;;;;1.60;1.10;;;;;;;16.58;55.97;95837.34;5042718;28;24442;-72
2022/08/13 00:49:08;;;;;;;2.00;1.10;;;;;;;16.59;55.92;95834.56;5037905;28;24462;-73
2022/08/13 00:51:37;;;;;;;2.13;1.30;;;;;;;16.63;55.62;95835.16;5042677;28;24456;-73
2022/08/13 00:54:06;;;;;;;2.65;1.40;;;;;;;16.65;55.40;95834.06;5033003;28;24439;-72
2022/08/13 00:56:34;;;;;;;1.77;1.20;;;;;;;16.57;55.89;95830.44;5040721;28;24439;-72
2022/08/13 00:59:09;;;;;;;1.80;1.27;;;;;;;16.48;56.25;95836.47;5035796;28;24439;-72
2022/08/13 01:01:35;;;;;;;2.95;1.17;;;;;;;16.34;56.41;95830.59;5043105;28;24920;-73
2022/08/13 01:04:04;;;;;;;2.85;1.48;;;;;;;15.94;57.59;95828.75;5037049;28;24446;-72
2022/08/13 01:06:31;;;;;;;5.30;1.85;;;;;;;15.73;58.58;95827.91;5036975;28;24446;-73
2022/08/13 01:08:58;;;;;;;1.60;1.23;;;;;;;15.92;58.23;95824.59;5039199;28;24442;-73
2022/08/13 01:11:28;;;;;;;3.05;1.42;;;;;;;16.01;57.77;95831.66;5037441;28;24443;-72
2022/08/13 01:13:57;;;;;;;1.55;1.20;;;;;;;15.93;58.08;95831.47;5037878;28;24435;-74
2022/08/13 01:16:27;;;;;;;2.30;1.10;;;;;;;15.87;58.16;95827.59;5041282;28;24514;-72
2022/08/13 01:18:54;;;;;;;1.40;1.23;;;;;;;15.68;58.79;95827.44;5039160;28;25046;-72
2022/08/13 01:21:22;;;;;;;2.10;1.10;;;;;;;15.67;58.60;95831.84;5037004;28;24505;-73
2022/08/13 01:23:52;;;;;;;3.58;1.38;;;;;;;15.60;59.53;95830.66;5032311;28;24444;-73
2022/08/13 01:26:21;;;;;;;2.00;1.00;;;;;;;15.64;59.00;95826.81;5039742;28;24435;-73
2022/08/13 01:28:50;;;;;;;1.85;1.23;;;;;;;15.63;59.18;95838.22;5038843;28;24930;-72
2022/08/13 01:31:18;;;;;;;1.95;1.27;;;;;;;15.70;58.87;95825.53;5033123;28;24439;-72
2022/08/13 01:33:47;;;;;;;1.65;1.20;;;;;;;15.55;59.53;95827.59;5034938;28;24439;-72
2022/08/13 01:36:13;;;;;;;1.70;1.05;;;;;;;15.48;59.73;95831.66;5032398;28;25000;-72
2022/08/13 01:38:41;;;;;;;2.05;1.30;;;;;;;15.53;60.02;95832.09;5040730;28;24435;-74
2022/08/13 01:41:10;;;;;;;2.42;1.10;;;;;;;15.55;60.10;95829.38;5038498;28;24455;-72
2022/08/13 01:43:38;;;;;;;1.40;1.30;;;;;;;15.55;59.85;95838.03;5036935;28;24443;-73
2022/08/13 01:46:08;;;;;;;3.00;1.27;;;;;;;15.52;59.54;95838.28;5043416;22;24531;-72
2022/08/13 01:51:23;;;;;;;3.50;1.38;;;;;;;15.63;59.49;95840.84;5025461;28;24435;-73
2022/08/13 01:53:59;;;;;;;2.90;1.15;;;;;;;15.65;59.77;95846.81;5028418;28;24432;-73
2022/08/13 01:56:29;;;;;;;2.20;1.05;;;;;;;15.76;58.67;95837.25;5037400;28;24440;-72
2022/08/13 01:58:57;;;;;;;1.10;1.00;;;;;;;15.41;59.67;95838.31;5035996;28;24435;-72
2022/08/13 02:01:26;;;;;;;2.95;1.50;;;;;;;15.19;60.54;95839.22;5033589;28;24517;-72
2022/08/13 02:03:53;;;;;;;1.50;1.10;;;;;;;15.29;60.45;95837.53;5038632;28;24439;-73
2022/08/13 02:06:24;;;;;;;1.50;1.20;;;;;;;15.00;61.89;95845.91;5044986;28;24995;-73
2022/08/13 02:08:52;;;;;;;1.30;1.10;;;;;;;15.03;61.42;95852.66;5039674;28;24913;-72
2022/08/13 02:11:19;;;;;;;2.50;1.00;;;;;;;14.88;62.23;95841.66;5037768;28;24494;-73
2022/08/13 02:13:48;;;;;;;1.38;1.20;;;;;;;14.80;62.08;95841.44;5035969;28;24434;-72
2022/08/13 02:16:15;;;;;;;1.48;1.15;;;;;;;14.77;61.77;95836.47;5037441;28;24984;-72
2022/08/13 02:18:41;;;;;;;1.80;1.02;;;;;;;14.62;62.41;95843.72;5041201;28;24494;-72
2022/08/13 02:21:08;;;;;;;1.33;1.15;;;;;;;14.62;62.69;95842.88;5032410;28;24486;-73
2022/08/13 02:23:34;;;;;;;2.03;0.98;;;;;;;14.59;63.17;95837.91;5036869;28;24439;-73
2022/08/13 02:26:05;;;;;;;2.05;1.38;;;;;;;14.62;62.62;95835.88;5042363;28;24450;-73
2022/08/13 02:28:39;;;;;;;2.00;0.98;;;;;;;14.73;62.52;95841.09;5040773;28;24439;-74
2022/08/13 02:31:08;;;;;;;2.00;1.10;;;;;;;14.84;62.65;95842.03;5030368;28;24436;-72
2022/08/13 02:33:37;;;;;;;4.38;1.08;;;;;;;14.88;62.19;95844.28;5040684;28;24482;-72
2022/08/13 02:36:10;;;;;;;1.75;0.93;;;;;;;14.84;62.66;95842.03;5038853;28;24996;-72
2022/08/13 02:38:37;;;;;;;2.13;1.20;;;;;;;14.75;62.82;95841.78;5040331;28;24439;-72
2022/08/13 02:43:50;;;;;;;1.75;1.23;;;;;;;14.71;63.07;95844.75;5037372;28;24904;-73
2022/08/13 02:46:21;;;;;;;1.42;1.10;;;;;;;14.41;64.63;95847.94;5044420;28;24500;-72
2022/08/13 02:48:48;;;;;;;2.08;1.20;;;;;;;14.33;64.46;95840.69;5040300;28;24435;-72
2022/08/13 02:51:15;;;;;;;1.30;1.00;;;;;;;14.40;64.32;95830.66;5036306;28;24432;-73
2022/08/13 02:53:42;;;;;;;1.13;1.00;;;;;;;14.51;64.22;95838.50;5034845;28;24852;-71
2022/08/13 02:56:10;;;;;;;1.83;1.30;;;;;;;14.26;65.10;95835.13;5042631;28;24440;-73
2022/08/13 02:58:38;;;;;;;1.20;1.00;;;;;;;14.21;64.80;95836.44;5042071;28;24436;-72
2022/08/13 03:01:05;;;;;;;1.70;1.17;;;;;;;14.09;65.49;95833.00;5037370;28;24435;-72
2022/08/13 03:03:33;;;;;;;2.63;1.13;;;;;;;14.11;65.08;95835.47;5039983;28;24455;-72
2022/08/13 03:05:59;;;;;;;1.75;1.08;;;;;;;13.90;66.05;95835.31;5039262;28;24458;-72
2022/08/13 03:08:27;;;;;;;3.15;1.42;;;;;;;13.84;65.95;95836.59;5038978;28;24821;-72
2022/08/13 03:10:55;;;;;;;3.25;1.60;;;;;;;13.68;67.25;95842.13;5040514;28;24536;-72
2022/08/13 03:13:24;;;;;;;4.80;1.48;;;;;;;13.71;67.37;95857.50;5043347;28;24461;-72
2022/08/13 03:15:54;;;;;;;1.50;1.23;;;;;;;13.77;67.64;95844.03;5037261;28;24442;-73
2022/08/13 03:18:22;;;;;;;2.47;1.23;;;;;;;13.92;67.21;95849.88;5039818;28;24434;-73
2022/08/13 03:20:50;;;;;;;2.20;1.40;;;;;;;14.01;66.85;95851.78;5043114;28;24436;-72
2022/08/13 03:23:17;;;;;;;3.30;1.30;;;;;;;14.10;66.60;95850.28;5039199;28;24853;-72
2022/08/13 03:25:44;;;;;;;3.15;1.67;;;;;;;14.21;65.35;95852.06;5042477;28;24447;-72
2022/08/13 03:28:10;;;;;;;3.95;1.60;;;;;;;14.10;66.29;95844.25;5043891;28;25030;-72
2022/08/13 03:30:37;;;;;;;2.25;1.90;;;;;;;14.05;66.34;95852.38;5035932;28;24857;-73
2022/08/13 03:33:06;;;;;;;1.98;1.77;;;;;;;13.88;67.28;95851.06;5044625;28;24436;-72
2022/08/13 03:35:33;;;;;;;2.40;1.75;;;;;;;13.89;67.17;95855.31;5030161;28;24459;-73
2022/08/13 03:38:01;;;;;;;2.97;1.80;;;;;;;13.85;67.66;95858.25;5032805;28;24431;-72
2022/08/13 03:41:00;;;;;;;2.53;2.00;;;;;;;13.76;68.26;95851.97;5031633;28;24439;-72
2022/08/13 03:43:16;;;;;;;1.92;1.60;;;;;;;13.84;68.15;95859.22;5034513;28;24450;-72
2022/08/13 03:45:44;;;;;;;2.38;1.50;;;;;;;13.87;67.73;95861.56;5042274;28;24435;-72
2022/08/13 03:48:13;;;;;;;2.43;1.60;;;;;;;13.84;68.25;95857.44;5037902;28;24472;-73
2022/08/13 03:50:40;;;;;;;3.23;1.30;;;;;;;13.87;68.30;95859.81;5032943;28;24525;-72
2022/08/13 03:53:09;;;;;;;1.33;1.23;;;;;;;13.87;68.23;95861.56;5039261;28;24494;-73
2022/08/13 03:55:37;;;;;;;3.10;1.58;;;;;;;13.92;67.88;95862.06;5038930;28;24510;-72
2022/08/13 03:58:06;;;;;;;4.15;1.55;;;;;;;13.87;67.73;95858.97;5040809;28;24438;-73
2022/08/13 04:00:34;;;;;;;2.30;1.50;;;;;;;13.86;67.66;95852.91;5035147;28;24523;-72
2022/08/13 04:03:02;;;;;;;1.85;1.17;;;;;;;13.86;67.82;95852.91;5034810;28;24454;-73
2022/08/13 04:05:30;;;;;;;2.55;1.20;;;;;;;13.80;68.20;95845.59;5042602;28;24517;-74
2022/08/13 04:07:56;;;;;;;2.67;1.27;;;;;;;13.82;67.88;95843.69;5037685;28;24443;-75
2022/08/13 04:10:24;;;;;;;2.00;1.40;;;;;;;13.80;68.08;95846.41;5037091;28;24437;-75
2022/08/13 04:12:51;;;;;;;1.95;1.52;;;;;;;13.76;68.58;95852.78;5035641;28;24477;-75
2022/08/13 04:15:17;;;;;;;2.50;1.60;;;;;;;13.65;68.84;95852.75;5041729;28;24490;-76
2022/08/13 04:17:44;;;;;;;5.13;1.50;;;;;;;13.75;67.19;95838.09;5041923;28;25506;-75
2022/08/13 04:20:12;;;;;;;2.17;1.40;;;;;;;13.55;68.43;95844.78;5041324;28;24988;-76
2022/08/13 04:22:39;;;;;;;2.47;1.33;;;;;;;13.38;68.75;95844.34;5039802;28;24546;-75
2022/08/13 04:25:05;;;;;;;2.17;1.17;;;;;;;13.39;68.15;95846.03;5039816;28;24439;-76
2022/08/13 04:27:34;;;;;;;2.40;1.67;;;;;;;13.46;68.60;95836.81;5039332;28;24447;-75
2022/08/13 04:30:03;;;;;;;1.80;1.30;;;;;;;13.36;69.05;95844.47;5033469;28;24988;-74
2022/08/13 04:32:31;;;;;;;1.75;1.30;;;;;;;13.22;69.56;95839.41;5043178;28;24434;-75
2022/08/13 04:34:57;;;;;;;2.30;1.75;;;;;;;13.21;69.31;95843.78;5038230;28;24551;-76
2022/08/13 04:37:24;;;;;;;4.10;1.70;;;;;;;13.25;69.78;95844.44;5034744;28;25003;-73
2022/08/13 04:39:51;;;;;;;3.85;1.85;;;;;;;13.20;70.36;95842.13;5035890;28;24489;-74
2022/08/13 04:42:18;;;;;;;2.85;2.13;;;;;;;13.11;71.19;95855.78;5041834;28;24555;-74
2022/08/13 04:44:47;;;;;;;5.15;1.95;;;;;;;13.07;71.27;95849.13;5038433;28;24976;-74
2022/08/13 04:47:14;;;;;;;3.45;2.20;;;;;;;13.16;71.24;95855.44;5035226;28;24440;-74
2022/08/13 04:49:41;;;;;;;3.33;2.35;;;;;;;13.11;72.24;95852.34;5034677;28;24996;-75
2022/08/13 04:52:07;;;;;;;3.42;2.45;;;;;;;13.07;73.28;95854.34;5041590;28;24450;-74
2022/08/13 04:54:33;;;;;;;4.53;2.80;;;;;;;13.22;73.00;95853.25;5038431;28;24443;-72
2022/08/13 04:57:00;;;;;;;4.43;2.20;;;;;;;13.35;72.95;95850.63;5035983;28;24452;-73
2022/08/13 04:59:26;;;;;;;6.72;2.72;;;;;;;13.63;71.89;95856.41;5033057;28;24806;-72
2022/08/13 05:01:55;;;;;;;7.50;3.42;;;;;;;13.75;71.94;95843.31;5041836;28;24431;-71
2022/08/13 05:04:22;;;;;;;6.50;2.67;;;;;;;13.86;72.25;95845.13;5039547;28;24984;-70
2022/08/13 05:06:51;;;;;;;4.35;2.00;;;;;;;13.87;72.78;95845.94;5036451;28;25008;-71
2022/08/13 05:09:17;;;;;;;3.85;2.20;;;;;;;14.00;71.14;95846.69;5032559;28;24485;-71
2022/08/13 05:11:44;;;;;;;2.80;1.92;;;;;;;14.10;72.17;95845.06;5040394;28;24529;-71
2022/08/13 05:14:10;;;;;;;2.75;1.88;;;;;;;14.24;71.80;95855.28;5040494;28;25042;-71
2022/08/13 05:16:37;;;;;;;5.55;2.25;;;;;;;14.36;72.16;95842.25;5034925;28;25012;-71
2022/08/13 05:19:05;;;;;;;4.70;2.30;;;;;;;14.49;72.00;95845.56;5037819;28;24462;-72
2022/08/13 05:21:32;;;;;;;4.70;2.28;;;;;;;14.74;70.62;95853.16;5038744;28;24451;-72
2022/08/13 05:23:59;;;;;;;4.00;2.90;;;;;;;14.85;70.40;95849.72;5041365;28;24447;-72
2022/08/13 05:26:31;;;;;;;9.57;3.13;;;;;;;14.95;69.64;95858.50;5033644;28;24440;-71
2022/08/13 05:29:04;;;;;;;6.38;3.10;;;;;;;14.97;70.70;95859.19;5033006;28;24462;-71
2022/08/13 05:31:31;;;;;;;5.00;2.78;;;;;;;15.07;70.50;95858.47;5031003;28;24436;-73
2022/08/13 05:33:58;;;;;;;2.50;1.98;;;;;;;15.15;69.55;95849.06;5037832;28;24470;-72
2022/08/13 05:36:28;;;;;;;3.15;2.30;;;;;;;15.33;68.70;95845.94;5034049;28;24526;-73
2022/08/13 05:38:55;;;;;;;3.22;2.25;;;;;;;15.53;68.60;95842.53;5040914;28;24439;-71
2022/08/13 05:41:23;;;;;;;2.92;2.00;;;;;;;15.67;67.12;95846.69;5036961;28;25073;-72
2022/08/13 05:43:51;;;;;;;4.68;2.42;;;;;;;15.84;68.66;95853.13;5026657;28;25037;-71
2022/08/13 05:46:18;;;;;;;2.28;2.00;;;;;;;16.02;68.41;95858.59;5033713;28;24485;-71
2022/08/13 05:48:56;;;;;;;5.20;2.30;;;;;;;16.12;67.73;95857.72;5041988;28;24442;-73
2022/08/13 05:51:28;;;;;;;6.60;2.22;;;;;;;16.33;65.75;95859.50;5037333;28;24531;-73
2022/08/13 05:53:57;;;;;;;3.45;2.22;;;;;;;16.48;65.83;95852.16;5032103;28;24955;-71
2022/08/13 05:56:24;;;;;;;3.28;2.45;;;;;;;16.52;66.59;95853.53;5041185;28;24443;-72
2022/08/13 05:58:51;;;;;;;2.83;1.83;;;;;;;16.69;65.51;95850.31;5037179;28;24435;-72
2022/08/13 06:04:03;;;;;;;2.88;1.77;;;;;;;16.84;65.25;95849.03;5034244;28;25030;-71
2022/08/13 06:06:32;;;;;;;2.72;1.80;;;;;;;17.04;64.64;95849.06;5043196;28;24446;-73
2022/08/13 06:08:59;;;;;;;2.80;1.90;;;;;;;17.10;63.62;95851.16;5036833;28;24436;-71
2022/08/13 06:11:27;;;;;;;4.10;2.05;;;;;;;17.15;62.75;95855.00;5039718;28;24490;-72
2022/08/13 06:13:54;;;;;;;2.13;1.50;;;;;;;17.23;64.03;95850.91;5036300;28;24427;-71
2022/08/13 06:16:21;;;;;;;2.23;1.67;;;;;;;17.38;62.75;95846.91;5040126;28;25228;-72
2022/08/13 06:18:49;;;;;;;2.25;1.80;;;;;;;17.50;63.61;95845.84;5037216;28;24535;-71
2022/08/13 06:21:18;;;;;;;8.25;1.70;;;;;;;17.31;61.90;95848.44;5035283;28;24999;-71
2022/08/13 06:23:48;;;;;;;3.17;1.70;;;;;;;17.33;61.69;95836.03;5036720;28;24586;-73
2022/08/13 06:26:16;;;;;;;2.00;1.40;;;;;;;17.39;61.27;95830.25;5032888;28;24439;-72
2022/08/13 06:28:44;;;;;;;1.90;1.53;;;;;;;17.57;60.70;95830.41;5040637;28;24793;-73
2022/08/13 06:31:16;;;;;;;9.25;2.45;;;;;;;17.63;59.42;95835.09;5038749;28;25026;-72
2022/08/13 06:33:44;;;;;;;11.82;2.30;;;;;;;17.66;58.68;95834.81;5035357;28;24436;-73
2022/08/13 06:36:12;;;;;;;17.58;2.90;;;;;;;17.50;58.67;95838.00;5038537;28;24431;-74
2022/08/13 06:38:43;;;;;;;12.65;2.80;;;;;;;17.57;58.75;95840.88;5031868;28;24443;-73
2022/08/13 06:41:12;;;;;;;12.80;2.83;;;;;;;17.67;58.70;95836.47;5032270;28;24428;-73
2022/08/13 06:43:41;;;;;;;14.77;2.40;;;;;;;17.87;58.43;95842.53;5035139;28;24462;-73
2022/08/13 06:46:08;;;;;;;5.15;2.00;;;;;;;18.03;58.64;95842.81;5038027;28;24530;-74
2022/08/13 06:48:35;;;;;;;8.18;1.92;;;;;;;18.55;58.91;95848.47;5039250;28;24430;-73
2022/08/13 06:51:04;;;;;;;5.70;1.90;;;;;;;19.10;58.24;95850.34;5041428;28;24447;-74
2022/08/13 06:53:32;;;;;;;5.68;1.90;;;;;;;19.46;57.24;95851.22;5040015;28;24443;-73
2022/08/13 06:55:59;;;;;;;3.10;1.58;;;;;;;19.87;55.83;95851.63;5033266;28;24504;-74
2022/08/13 06:58:28;;;;;;;4.38;1.50;;;;;;;20.25;54.24;95850.44;5043882;28;24435;-73
2022/08/13 07:00:55;;;;;;;2.37;1.47;;;;;;;20.41;53.17;95856.78;5041574;28;24535;-73
2022/08/13 07:03:26;;;;;;;2.70;1.40;;;;;;;20.65;52.10;95867.47;5039136;28;24842;-74
2022/08/13 07:05:53;;;;;;;1.80;1.20;;;;;;;20.88;51.47;95862.50;5034990;28;24489;-74
2022/08/13 07:08:22;;;;;;;30.88;2.47;;;;;;;20.96;50.31;95862.53;5043725;28;24534;-75
2022/08/13 07:10:50;;;;;;;7.55;1.60;;;;;;;21.32;50.32;95864.97;5041980;28;24435;-74
2022/08/13 07:13:17;;;;;;;13.43;1.73;;;;;;;21.69;50.02;95856.69;5040423;28;24440;-74
2022/08/13 07:15:51;;;;;;;3.72;1.10;;;;;;;21.74;49.35;95861.47;5034495;28;24860;-75
2022/08/13 07:18:18;;;;;;;32.35;3.10;;;;;;;22.07;48.96;95867.59;5043795;28;24443;-75
2022/08/13 07:20:45;;;;;;;46.30;4.00;;;;;;;22.35;48.85;95856.72;5041753;28;24447;-75
2022/08/13 07:23:12;;;;;;;30.08;3.97;;;;;;;22.39;47.83;95858.84;5041064;28;24478;-72
2022/08/13 07:25:41;;;;;;;16.77;2.28;;;;;;;22.64;46.56;95872.00;5039631;28;24833;-72
2022/08/13 07:28:08;;;;;;;15.38;2.38;;;;;;;22.54;47.25;95858.97;5043131;28;25014;-74
2022/08/13 07:30:34;;;;;;;4.50;1.15;;;;;;;22.69;45.92;95869.66;5035869;28;24456;-70
2022/08/13 07:33:03;;;;;;;1.30;1.10;;;;;;;22.49;46.65;95863.13;5032919;28;24546;-73
2022/08/13 07:35:34;;;;;;;3.67;1.53;;;;;;;22.34;45.86;95861.16;5033636;28;24435;-73
2022/08/13 07:38:00;;;;;;;6.43;1.45;;;;;;;22.71;45.11;95867.69;5044996;28;24450;-73
2022/08/13 07:40:27;;;;;;;4.10;1.40;;;;;;;22.50;44.92;95864.78;5037955;28;24988;-72
2022/08/13 07:42:56;;;;;;;2.00;1.30;;;;;;;22.45;44.90;95867.91;5037465;28;24443;-72
2022/08/13 07:47:52;;;;;;;9.13;1.42;;;;;;;22.79;44.34;95858.94;5007378;28;24464;-73
2022/08/13 07:50:21;;;;;;;2.77;1.20;;;;;;;22.82;44.47;95861.22;5010964;28;24483;-71
2022/08/13 07:52:57;;;;;;;1.90;1.23;;;;;;;23.01;44.38;95858.22;5002323;28;24441;-72
2022/08/13 07:55:25;;;;;;;2.05;1.33;;;;;;;23.10;43.65;95856.34;5009467;28;24444;-73
2022/08/13 07:57:52;;;;;;;3.83;1.42;;;;;;;23.27;44.11;95855.28;5011822;28;24502;-74
2022/08/13 08:00:21;;;;;;;6.68;1.33;;;;;;;23.17;44.81;95854.69;5020337;28;24440;-73
2022/08/13 08:02:53;;;;;;;3.85;1.30;;;;;;;23.52;43.78;95853.34;5010304;28;24555;-73
2022/08/13 08:05:23;;;;;;;2.20;1.33;;;;;;;23.02;43.10;95845.84;5004370;28;24443;-74
2022/08/13 08:07:51;;;;;;;13.20;1.60;;;;;;;23.65;43.27;95856.22;5010713;28;24510;-74
2022/08/13 08:10:18;;;;;;;3.50;1.13;;;;;;;23.07;42.82;95854.91;5005242;28;24989;-73
2022/08/13 08:12:44;;;;;;;4.43;1.35;;;;;;;23.68;43.39;95852.44;5008723;28;24527;-73
2022/08/13 08:15:12;;;;;;;2.90;1.40;;;;;;;24.17;41.71;95848.59;5006351;28;24435;-73
2022/08/13 08:17:40;;;;;;;1.63;1.00;;;;;;;24.23;41.08;95853.19;5006725;28;24445;-76
2022/08/13 08:20:08;;;;;;;2.13;1.25;;;;;;;24.43;41.41;95856.19;5003126;28;24486;-70
2022/08/13 08:22:37;;;;;;;1.77;1.10;;;;;;;24.33;39.90;95864.34;5006687;28;24439;-71
2022/08/13 08:25:04;;;;;;;2.77;1.43;;;;;;;24.31;39.46;95864.53;5014433;28;24460;-72
2022/08/13 08:27:32;;;;;;;1.67;1.20;;;;;;;24.55;41.19;95863.53;5011323;28;24448;-72
2022/08/13 08:30:00;;;;;;;4.53;1.45;;;;;;;24.35;39.95;95863.16;5021798;28;24435;-71
2022/08/13 08:32:27;;;;;;;3.90;1.30;;;;;;;24.31;40.93;95866.34;5005760;28;24495;-72
2022/08/13 08:34:54;;;;;;;1.70;1.10;;;;;;;24.32;40.03;95860.03;5008194;28;24984;-71
2022/08/13 08:42:55;;;;;;;8.15;1.38;;;;;;;24.80;38.47;95863.25;5009851;28;24846;-71
2022/08/13 08:45:24;;;;;;;3.03;1.20;;;;;;;24.89;38.02;95859.50;5017063;28;24510;-73
2022/08/13 08:47:52;;;;;;;2.45;1.13;;;;;;;24.97;38.50;95862.06;5006606;28;24458;-73
2022/08/13 08:50:19;;;;;;;1.67;1.30;;;;;;;25.06;37.84;95858.28;5021190;28;24612;-72
2022/08/13 08:55:35;;;;;;;7.65;1.40;;;;;;;25.40;37.09;95872.00;5002086;28;24436;-73
2022/08/13 08:58:04;;;;;;;4.03;1.40;;;;;;;25.40;37.67;95866.69;5009768;28;24440;-72
2022/08/13 09:00:32;;;;;;;2.22;1.25;;;;;;;25.53;36.43;95866.84;5008744;28;24443;-72
2022/08/13 09:02:59;;;;;;;4.93;1.13;;;;;;;25.51;37.07;95860.91;5014621;28;24448;-72
2022/08/13 09:05:25;;;;;;;3.38;1.38;;;;;;;25.44;37.29;95860.84;5017316;28;24535;-71
2022/08/13 09:07:53;;;;;;;2.97;1.48;;;;;;;25.26;38.25;95861.25;5004496;28;24437;-72
2022/08/13 09:10:22;;;;;;;2.38;1.23;;;;;;;25.08;38.10;95863.44;5009529;28;24436;-72
2022/08/13 09:12:52;;;;;;;4.70;1.27;;;;;;;25.31;37.53;95853.56;5008058;28;24522;-72
2022/08/13 09:15:21;;;;;;;10.60;1.65;;;;;;;25.62;37.55;95849.81;5009852;28;24436;-71
2022/08/13 09:17:49;;;;;;;4.47;1.52;;;;;;;25.64;37.10;95847.81;5005411;28;24495;-71
2022/08/13 09:20:18;;;;;;;6.47;1.60;;;;;;;25.82;35.96;95847.41;5008715;28;24539;-71
2022/08/13 09:22:46;;;;;;;4.47;1.30;;;;;;;25.63;35.61;95850.66;5006945;28;24431;-71
2022/08/13 09:25:15;;;;;;;2.20;1.30;;;;;;;25.37;36.47;95851.19;5010110;28;25015;-72
2022/08/13 09:27:43;;;;;;;2.28;1.30;;;;;;;25.31;36.37;95848.25;5009365;28;24455;-70
2022/08/13 09:30:13;;;;;;;3.55;1.10;;;;;;;25.41;35.19;95844.50;5012402;28;24444;-71
2022/08/13 09:32:40;;;;;;;3.33;1.10;;;;;;;25.71;34.50;95839.91;5014920;28;24439;-70
2022/08/13 09:35:07;;;;;;;1.65;1.25;;;;;;;25.64;36.40;95831.88;5008179;28;24486;-71
2022/08/13 09:37:35;;;;;;;1.27;1.13;;;;;;;25.86;35.37;95829.28;5008245;28;25119;-72
2022/08/13 09:40:06;;;;;;;2.88;1.13;;;;;;;25.74;34.95;95840.38;5005438;28;24444;-72
2022/08/13 09:42:36;;;;;;;2.00;1.45;;;;;;;25.16;34.83;95836.03;5002509;28;24436;-72
2022/08/13 09:45:03;;;;;;;1.90;1.25;;;;;;;24.98;35.67;95839.03;5007989;28;24507;-71
2022/08/13 09:47:32;;;;;;;4.53;1.10;;;;;;;24.90;35.96;95837.31;5008398;28;24881;-72
2022/08/13 09:49:58;;;;;;;1.63;1.40;;;;;;;25.25;36.45;95846.38;4994887;28;24468;-71
2022/08/13 09:52:25;;;;;;;1.63;1.15;;;;;;;25.18;36.50;95837.50;5007473;28;24494;-71
2022/08/13 09:54:51;;;;;;;1.30;0.90;;;;;;;25.25;36.04;95832.25;5002239;28;24440;-72
2022/08/13 09:57:20;;;;;;;4.70;1.40;;;;;;;25.31;35.60;95842.94;5012431;28;24486;-72
2022/08/13 09:59:46;;;;;;;3.10;1.42;;;;;;;25.51;35.89;95831.72;5017490;28;24903;-72
2022/08/13 10:02:14;;;;;;;2.83;1.17;;;;;;;25.57;36.30;95837.13;5005841;28;24482;-72
2022/08/13 10:04:43;;;;;;;2.92;1.20;;;;;;;25.60;34.83;95835.94;5006548;28;24832;-72
2022/08/13 10:07:11;;;;;;;6.38;1.48;;;;;;;25.27;34.82;95844.34;5004175;28;24525;-72
2022/08/13 10:09:38;;;;;;;2.78;1.30;;;;;;;25.18;35.75;95837.50;4999549;28;24452;-73
2022/08/13 10:12:08;;;;;;;3.00;1.30;;;;;;;24.98;36.47;95842.50;4999517;28;24595;-71
2022/08/13 10:14:35;;;;;;;3.03;1.30;;;;;;;25.04;35.94;95836.47;5000105;28;24435;-71
2022/08/13 10:17:04;;;;;;;5.22;1.42;;;;;;;25.53;35.65;95838.50;5005224;28;24523;-70
2022/08/13 10:19:31;;;;;;;2.83;1.30;;;;;;;25.72;35.15;95831.75;5007555;28;24439;-72
2022/08/13 10:21:59;;;;;;;3.08;1.65;;;;;;;26.10;35.13;95836.84;5009584;28;24916;-71
2022/08/13 10:24:25;;;;;;;3.67;1.50;;;;;;;26.28;33.63;95839.03;5011262;28;24483;-71
2022/08/13 10:26:52;;;;;;;4.90;1.90;;;;;;;26.15;33.60;95831.78;5008496;28;25079;-71
2022/08/13 10:29:18;;;;;;;4.97;1.83;;;;;;;26.26;33.78;95846.38;5011610;28;24440;-71
2022/08/13 10:31:45;;;;;;;5.57;1.90;;;;;;;26.22;34.20;95829.19;5010561;28;25224;-72
2022/08/13 10:34:11;;;;;;;2.88;1.60;;;;;;;26.30;32.90;95826.38;5006246;28;24807;-72
2022/08/13 10:36:42;;;;;;;2.17;1.50;;;;;;;26.57;33.02;95824.75;5008502;28;24456;-71
2022/08/13 10:39:10;;;;;;;3.67;2.03;;;;;;;26.36;32.15;95819.47;5004145;28;24993;-71
2022/08/13 10:41:37;;;;;;;7.13;2.15;;;;;;;25.97;32.14;95815.50;5002931;28;24978;-72
2022/08/13 10:44:04;;;;;;;10.65;2.05;;;;;;;26.25;33.96;95826.97;5011291;28;24449;-71
2022/08/13 10:46:31;;;;;;;2.95;1.83;;;;;;;26.37;30.62;95818.47;5015112;28;24493;-71
2022/08/13 10:48:58;;;;;;;7.10;2.08;;;;;;;26.20;32.05;95818.75;5011368;28;24462;-71
2022/08/13 10:51:26;;;;;;;8.50;2.20;;;;;;;25.85;32.61;95827.66;5027884;28;24810;-72
2022/08/13 10:54:01;;;;;;;2.33;1.70;;;;;;;26.14;33.30;95816.03;5012398;28;24494;-72
2022/08/13 10:56:31;;;;;;;3.55;1.92;;;;;;;26.35;32.74;95817.84;5004082;28;24451;-71
2022/08/13 10:59:01;;;;;;;2.60;1.52;;;;;;;26.35;32.21;95812.53;5005333;28;24546;-73
2022/08/13 11:01:29;;;;;;;16.63;2.10;;;;;;;26.62;32.14;95825.00;5020275;28;24551;-71
2022/08/13 11:03:58;;;;;;;4.95;1.55;;;;;;;26.45;31.19;95818.31;5019656;28;25032;-71
2022/08/13 11:06:26;;;;;;;2.30;1.30;;;;;;;26.29;31.00;95812.31;5008447;28;24479;-72
2022/08/13 11:08:54;;;;;;;2.33;1.48;;;;;;;26.26;30.60;95810.03;5004522;28;24471;-70
2022/08/13 11:11:22;;;;;;;4.43;1.52;;;;;;;25.99;30.62;95824.06;5011499;28;24447;-70
2022/08/13 11:13:50;;;;;;;1.52;1.15;;;;;;;25.74;33.09;95813.03;5011543;28;24519;-69
2022/08/13 11:19:06;;;;;;;3.92;1.38;;;;;;;25.94;32.32;95815.88;5008532;28;24571;-72
2022/08/13 11:21:32;;;;;;;6.10;1.38;;;;;;;26.34;30.12;95810.91;5011534;28;24842;-72
2022/08/13 11:23:59;;;;;;;3.35;1.27;;;;;;;26.53;29.92;95810.22;5010537;28;24977;-74
2022/08/13 11:26:25;;;;;;;3.25;1.35;;;;;;;26.60;30.26;95815.59;5011429;28;24448;-73
2022/08/13 11:28:53;;;;;;;2.53;1.05;;;;;;;26.77;29.88;95815.09;5010451;28;24447;-73
2022/08/13 11:31:19;;;;;;;3.70;1.50;;;;;;;26.83;30.37;95815.31;5011032;28;24598;-74
2022/08/13 11:33:46;;;;;;;7.47;1.45;;;;;;;26.67;29.90;95817.28;5011053;28;24444;-72
2022/08/13 11:36:12;;;;;;;4.07;1.40;;;;;;;26.53;29.54;95797.78;5010392;28;24845;-73
2022/08/13 11:38:38;;;;;;;8.02;1.63;;;;;;;26.68;28.44;95810.94;5011234;28;24443;-74
2022/08/13 11:41:05;;;;;;;6.18;1.48;;;;;;;26.48;28.21;95807.34;5011186;28;24482;-73
2022/08/13 11:43:33;;;;;;;6.10;1.00;;;;;;;26.53;29.16;95810.22;5010338;28;24988;-73
2022/08/13 11:46:00;;;;;;;7.72;2.08;;;;;;;26.41;29.01;95814.44;5011064;28;24545;-75
2022/08/13 11:48:27;;;;;;;1.98;1.10;;;;;;;26.36;29.72;95816.81;5010930;28;24999;-75
2022/08/13 11:50:55;;;;;;;12.73;2.00;;;;;;;26.36;30.38;95819.47;5010489;28;24440;-74
2022/08/13 11:53:22;;;;;;;2.63;1.20;;;;;;;26.27;30.11;95814.31;5011091;28;24491;-73
2022/08/13 11:55:49;;;;;;;4.23;1.23;;;;;;;26.28;31.31;95809.81;5006520;28;24535;-73
2022/08/13 11:58:16;;;;;;;2.05;0.98;;;;;;;26.75;30.30;95808.31;5008094;28;24523;-73
2022/08/13 12:00:43;;;;;;;2.90;1.30;;;;;;;26.20;30.14;95807.31;5017670;28;24432;-72
2022/08/13 12:03:11;;;;;;;5.55;1.38;;;;;;;26.18;31.15;95809.31;5021491;28;24455;-72
2022/08/13 12:05:38;;;;;;;2.20;1.45;;;;;;;25.85;31.65;95817.03;5008841;28;24818;-72